createdAt,value
2023-01-20T00:01:15.883Z,33.55
2023-01-20T00:03:44.631Z,29.25
2023-01-20T00:06:13.154Z,27.63
2023-01-20T00:08:41.399Z,25.00
2023-01-20T00:11:10.461Z,30.00
2023-01-20T00:13:38.124Z,29.38
2023-01-20T00:16:09.507Z,26.65
2023-01-20T00:18:37.679Z,23.77
2023-01-20T00:21:06.268Z,29.20
2023-01-20T00:23:34.296Z,28.08
2023-01-20T00:26:06.193Z,27.77
2023-01-20T00:28:33.990Z,30.15
2023-01-20T00:31:13.325Z,32.80
2023-01-20T00:33:41.291Z,33.75
2023-01-20T00:36:09.735Z,31.60
2023-01-20T00:38:37.512Z,33.88
2023-01-20T00:41:05.629Z,31.23
2023-01-20T00:43:33.290Z,31.25
2023-01-20T00:46:00.902Z,36.00
2023-01-20T00:48:30.018Z,37.95
2023-01-20T00:50:57.505Z,39.72
2023-01-20T00:53:25.036Z,37.53
2023-01-20T00:55:52.497Z,34.08
2023-01-20T00:58:20.046Z,38.75
2023-01-20T01:00:47.956Z,37.83
2023-01-20T01:03:15.721Z,39.50
2023-01-20T01:05:45.089Z,40.78
2023-01-20T01:08:12.979Z,38.75
2023-01-20T01:10:41.124Z,34.53
2023-01-20T01:13:09.268Z,39.90
2023-01-20T01:15:36.883Z,33.72
2023-01-20T01:18:04.546Z,35.65
2023-01-20T01:20:32.456Z,40.25
2023-01-20T01:23:01.295Z,37.55
2023-01-20T01:25:28.806Z,44.65
2023-01-20T01:27:56.475Z,45.05
2023-01-20T01:30:23.993Z,38.75
2023-01-20T01:32:51.526Z,45.08
2023-01-20T01:35:19.042Z,41.60
2023-01-20T01:37:46.547Z,44.17
2023-01-20T01:40:15.629Z,42.88
2023-01-20T01:42:43.232Z,38.70
2023-01-20T01:45:26.238Z,41.25
2023-01-20T01:48:00.096Z,38.47
2023-01-20T01:50:32.936Z,44.85
2023-01-20T01:53:01.177Z,42.47
2023-01-20T01:55:34.384Z,35.35
2023-01-20T01:58:03.939Z,37.38
2023-01-20T02:00:31.611Z,34.50
2023-01-20T02:02:59.598Z,36.47
2023-01-20T02:05:29.367Z,35.10
2023-01-20T02:07:59.184Z,33.50
2023-01-20T02:10:26.790Z,34.80
2023-01-20T02:12:55.988Z,33.33
2023-01-20T02:15:28.104Z,33.20
2023-01-20T02:18:16.625Z,32.35
2023-01-20T02:21:14.458Z,35.55
2023-01-20T02:24:08.742Z,34.13
2023-01-20T02:26:54.509Z,31.90
2023-01-20T02:29:45.968Z,33.97
2023-01-20T02:32:24.539Z,38.22
2023-01-20T02:34:59.776Z,35.25
2023-01-20T02:37:29.873Z,36.90
2023-01-20T02:40:12.363Z,37.75
2023-01-20T02:42:44.445Z,37.22
2023-01-20T02:45:18.340Z,31.52
2023-01-20T02:47:56.299Z,30.95
2023-01-20T02:50:27.739Z,35.90
2023-01-20T02:52:59.555Z,33.10
2023-01-20T02:55:30.755Z,30.38
2023-01-20T02:58:02.944Z,32.22
2023-01-20T03:00:35.143Z,29.80
2023-01-20T03:03:08.489Z,34.17
2023-01-20T03:05:40.878Z,30.92
2023-01-20T03:08:12.834Z,30.23
2023-01-20T03:10:42.735Z,29.60
2023-01-20T03:13:16.252Z,29.00
2023-01-20T03:15:52.914Z,33.05
2023-01-20T03:18:22.135Z,30.10
2023-01-20T03:20:49.705Z,30.42
2023-01-20T03:23:17.285Z,41.83
2023-01-20T03:25:47.001Z,34.85
2023-01-20T03:28:14.964Z,30.13
2023-01-20T03:30:42.544Z,35.90
2023-01-20T03:33:10.836Z,33.72
2023-01-20T03:35:40.746Z,34.35
2023-01-20T03:38:09.954Z,32.95
2023-01-20T03:40:42.868Z,38.78
2023-01-20T03:43:18.168Z,27.25
2023-01-20T03:45:56.146Z,35.97
2023-01-20T03:48:32.532Z,32.33
2023-01-20T03:51:10.423Z,33.30
2023-01-20T03:53:45.301Z,32.83
2023-01-20T03:56:18.019Z,37.90
2023-01-20T03:58:49.766Z,33.38
2023-01-20T04:01:20.103Z,35.90
2023-01-20T04:03:49.992Z,35.63
2023-01-20T04:06:22.406Z,33.90
2023-01-20T04:08:56.412Z,35.47
2023-01-20T04:11:24.270Z,39.50
2023-01-20T04:13:52.046Z,38.88
2023-01-20T04:16:21.216Z,35.45
2023-01-20T04:18:50.437Z,37.58
2023-01-20T04:21:23.180Z,34.58
2023-01-20T04:23:56.223Z,29.20
2023-01-20T04:26:23.746Z,30.10
2023-01-20T04:28:51.245Z,27.42
2023-01-20T04:31:30.170Z,28.83
2023-01-20T04:33:59.013Z,24.35
2023-01-20T04:36:28.010Z,29.90
2023-01-20T04:38:55.509Z,24.48
2023-01-20T04:41:23.041Z,36.05
2023-01-20T04:43:50.720Z,32.92
2023-01-20T04:46:18.218Z,30.40
2023-01-20T04:48:46.153Z,29.70
2023-01-20T04:51:13.906Z,32.85
2023-01-20T04:53:42.893Z,30.98
2023-01-20T04:56:13.052Z,31.63
2023-01-20T04:58:41.040Z,33.20
2023-01-20T05:01:09.454Z,36.30
2023-01-20T05:03:37.648Z,33.90
2023-01-20T05:06:06.184Z,31.55
2023-01-20T05:08:34.276Z,28.38
2023-01-20T05:11:03.163Z,30.35
2023-01-20T05:13:30.792Z,30.13
2023-01-20T05:16:01.859Z,29.60
2023-01-20T05:18:30.344Z,31.45
2023-01-20T05:20:57.819Z,30.10
2023-01-20T05:23:25.317Z,26.00
2023-01-20T05:25:53.518Z,25.58
2023-01-20T05:28:22.670Z,22.25
2023-01-20T05:30:51.527Z,26.17
2023-01-20T05:33:19.149Z,29.20
2023-01-20T05:35:46.703Z,28.85
2023-01-20T05:38:14.382Z,29.60
2023-01-20T05:40:41.907Z,28.02
2023-01-20T05:43:10.287Z,28.35
2023-01-20T05:45:40.439Z,25.60
2023-01-20T05:48:07.971Z,26.85
2023-01-20T05:50:35.485Z,31.08
2023-01-20T05:53:02.996Z,29.77
2023-01-20T05:55:30.482Z,30.85
2023-01-20T05:57:57.931Z,28.83
2023-01-20T06:00:25.612Z,26.23
2023-01-20T06:02:54.500Z,31.05
2023-01-20T06:05:22.033Z,29.40
2023-01-20T06:07:49.597Z,31.00
2023-01-20T06:10:17.975Z,39.22
2023-01-20T06:12:45.443Z,31.20
2023-01-20T06:15:13.422Z,35.92
2023-01-20T06:17:41.028Z,32.17
2023-01-20T06:20:11.753Z,28.75
2023-01-20T06:22:39.415Z,34.58
2023-01-20T06:25:07.419Z,34.50
2023-01-20T06:27:34.963Z,35.50
2023-01-20T06:30:02.454Z,38.78
2023-01-20T06:32:29.923Z,33.03
2023-01-20T06:34:57.395Z,34.83
2023-01-20T06:37:26.250Z,37.20
2023-01-20T06:39:53.822Z,32.17
2023-01-20T06:42:21.303Z,32.42
2023-01-20T06:44:48.825Z,37.53
2023-01-20T06:47:16.379Z,33.25
2023-01-20T06:49:43.849Z,36.80
2023-01-20T06:52:11.382Z,31.40
2023-01-20T06:54:40.276Z,28.77
2023-01-20T06:57:07.737Z,29.45
2023-01-20T06:59:35.221Z,25.63
2023-01-20T07:02:02.822Z,29.08
2023-01-20T07:04:30.339Z,24.05
2023-01-20T07:06:57.815Z,28.77
2023-01-20T07:09:25.323Z,30.77
2023-01-20T07:11:54.149Z,22.83
2023-01-20T07:14:22.041Z,25.48
2023-01-20T07:16:49.579Z,32.40
2023-01-20T07:19:17.162Z,28.02
2023-01-20T07:21:44.626Z,25.15
2023-01-20T07:24:12.092Z,28.17
2023-01-20T07:26:39.573Z,30.33
2023-01-20T07:29:08.408Z,27.90
2023-01-20T07:31:35.910Z,30.13
2023-01-20T07:34:03.499Z,29.52
2023-01-20T07:36:31.233Z,28.67
2023-01-20T07:38:58.770Z,33.42
2023-01-20T07:41:26.350Z,27.73
2023-01-20T07:43:54.402Z,34.22
2023-01-20T07:46:23.237Z,33.17
2023-01-20T07:48:50.929Z,30.75
2023-01-20T07:51:18.646Z,30.02
2023-01-20T07:53:48.066Z,28.60
2023-01-20T07:56:17.108Z,33.90
2023-01-20T07:58:45.794Z,27.50
2023-01-20T08:01:15.460Z,33.63
2023-01-20T08:03:45.183Z,36.25
2023-01-20T08:06:15.330Z,30.67
2023-01-20T08:08:43.224Z,31.40
2023-01-20T08:11:13.765Z,30.33
2023-01-20T08:13:41.779Z,28.40
2023-01-20T08:16:11.570Z,29.90
2023-01-20T08:18:39.649Z,28.75
2023-01-20T08:21:17.418Z,31.70
2023-01-20T08:23:44.910Z,28.10
2023-01-20T08:26:12.364Z,30.58
2023-01-20T08:28:39.979Z,23.58
2023-01-20T08:31:09.793Z,24.25
2023-01-20T08:33:37.936Z,29.08
2023-01-20T08:36:11.745Z,26.92
2023-01-20T08:38:40.154Z,36.28
2023-01-20T08:41:08.675Z,29.33
2023-01-20T08:43:36.194Z,30.67
2023-01-20T08:46:07.432Z,25.48
2023-01-20T08:48:35.207Z,28.83
2023-01-20T08:51:05.184Z,29.70
2023-01-20T08:53:34.032Z,31.67
2023-01-20T08:56:03.297Z,23.45
2023-01-20T08:58:31.467Z,20.88
2023-01-20T09:00:59.291Z,26.65
2023-01-20T09:03:27.467Z,20.83
2023-01-20T09:05:54.970Z,23.40
2023-01-20T09:08:26.798Z,25.02
2023-01-20T09:10:57.413Z,24.83
2023-01-20T09:13:24.880Z,26.17
2023-01-20T09:15:53.344Z,26.30
2023-01-20T09:18:20.817Z,23.08
2023-01-20T09:20:48.318Z,20.60
2023-01-20T09:23:15.835Z,24.00
2023-01-20T09:25:43.306Z,24.23
2023-01-20T09:28:14.120Z,24.02
2023-01-20T09:30:42.666Z,20.30
2023-01-20T09:33:11.053Z,25.92
2023-01-20T09:35:38.661Z,22.80
2023-01-20T09:38:24.353Z,25.40
2023-01-20T09:41:18.514Z,25.27
2023-01-20T09:43:58.353Z,19.90
2023-01-20T09:46:37.429Z,22.92
2023-01-20T09:49:36.568Z,22.75
2023-01-20T09:52:32.061Z,22.75
2023-01-20T09:55:04.556Z,22.13
2023-01-20T09:57:36.271Z,24.15
2023-01-20T10:00:14.370Z,23.63
2023-01-20T10:02:45.492Z,27.30
2023-01-20T10:05:18.713Z,22.13
2023-01-20T10:07:55.508Z,27.17
2023-01-20T10:10:29.320Z,21.50
2023-01-20T10:13:04.689Z,20.85
2023-01-20T10:18:07.210Z,19.13
2023-01-20T10:20:41.957Z,22.98
2023-01-20T10:23:15.264Z,18.17
2023-01-20T10:25:46.201Z,19.27
2023-01-20T10:28:16.229Z,17.40
2023-01-20T10:30:47.291Z,14.60
2023-01-20T10:33:17.463Z,16.35
2023-01-20T10:35:48.308Z,16.80
2023-01-20T10:38:25.574Z,19.13
2023-01-20T10:40:58.227Z,14.88
2023-01-20T10:43:26.617Z,17.88
2023-01-20T10:46:17.593Z,16.92
2023-01-20T10:49:01.102Z,17.35
2023-01-20T10:51:37.481Z,17.58
2023-01-20T10:54:19.361Z,17.52
2023-01-20T10:56:53.390Z,18.90
2023-01-20T10:59:29.538Z,16.20
2023-01-20T11:02:11.792Z,12.25
2023-01-20T11:04:40.174Z,12.57
2023-01-20T11:07:16.330Z,12.80
2023-01-20T11:09:44.198Z,15.88
2023-01-20T11:12:16.876Z,16.10
2023-01-20T11:14:44.673Z,15.18
2023-01-20T11:17:18.603Z,12.48
2023-01-20T11:19:49.026Z,11.55
2023-01-20T11:22:21.197Z,12.98
2023-01-20T11:24:49.034Z,11.15
2023-01-20T11:27:20.897Z,15.90
2023-01-20T11:29:52.320Z,9.63
2023-01-20T11:32:30.256Z,10.95
2023-01-20T11:34:58.530Z,10.27
2023-01-20T11:37:27.567Z,9.75
2023-01-20T11:40:01.437Z,11.48
2023-01-20T11:42:30.611Z,10.85
2023-01-20T11:45:15.543Z,12.25
2023-01-20T11:48:00.748Z,12.63
2023-01-20T11:50:32.478Z,12.50
2023-01-20T11:53:14.343Z,8.00
2023-01-20T11:55:51.641Z,14.57
2023-01-20T11:58:21.475Z,12.02
2023-01-20T12:00:52.007Z,12.98
2023-01-20T12:03:36.896Z,11.52
2023-01-20T12:06:10.164Z,16.47
2023-01-20T12:08:48.232Z,9.18
2023-01-20T12:11:19.862Z,8.48
2023-01-20T12:14:16.331Z,11.23
2023-01-20T12:16:45.438Z,16.48
2023-01-20T12:19:19.299Z,11.35
2023-01-20T12:21:51.623Z,10.88
2023-01-20T12:24:35.324Z,9.82
2023-01-20T12:27:17.111Z,10.63
2023-01-20T12:29:45.966Z,14.68
2023-01-20T12:32:13.488Z,11.70
2023-01-20T12:34:42.343Z,13.05
2023-01-20T12:37:18.499Z,9.85
2023-01-20T12:40:04.958Z,14.10
2023-01-20T12:42:47.070Z,11.07
2023-01-20T12:45:27.740Z,9.93
2023-01-20T12:48:06.906Z,11.23
2023-01-20T12:50:49.176Z,11.20
2023-01-20T12:53:31.282Z,14.65
2023-01-20T12:56:11.903Z,12.40
2023-01-20T12:58:50.049Z,14.93
2023-01-20T13:01:38.763Z,12.75
2023-01-20T13:04:36.237Z,14.63
2023-01-20T13:07:20.687Z,14.25
2023-01-20T13:10:04.213Z,17.25
2023-01-20T13:12:41.071Z,11.05
2023-01-20T13:15:19.366Z,11.38
2023-01-20T13:18:01.200Z,12.82
2023-01-20T13:20:31.163Z,12.93
2023-01-20T13:23:06.329Z,14.25
2023-01-20T13:25:35.442Z,12.90
2023-01-20T13:28:04.015Z,10.15
2023-01-20T13:30:47.908Z,12.73
2023-01-20T13:33:19.354Z,11.68
2023-01-20T13:35:49.414Z,9.73
2023-01-20T13:38:23.714Z,12.10
2023-01-20T13:40:54.469Z,14.48
2023-01-20T13:43:52.960Z,11.95
2023-01-20T13:46:46.815Z,13.20
2023-01-20T13:49:33.312Z,10.80
2023-01-20T13:52:00.782Z,13.07
2023-01-20T13:54:48.649Z,14.77
2023-01-20T13:57:36.521Z,13.43
2023-01-20T14:00:18.809Z,12.85
2023-01-20T14:02:48.104Z,15.40
2023-01-20T14:05:24.647Z,15.63
2023-01-20T14:07:52.527Z,13.35
2023-01-20T14:10:21.456Z,15.60
2023-01-20T14:12:48.960Z,10.95
2023-01-20T14:15:37.818Z,12.07
2023-01-20T14:18:06.467Z,12.85
2023-01-20T14:20:34.050Z,15.50
2023-01-20T14:23:27.590Z,15.45
2023-01-20T14:26:01.211Z,13.00
2023-01-20T14:28:29.114Z,12.30
2023-01-20T14:31:27.885Z,22.25
2023-01-20T14:33:59.087Z,11.98
2023-01-20T14:36:30.418Z,13.07
2023-01-20T14:39:03.758Z,14.80
2023-01-20T14:41:35.742Z,18.25
2023-01-20T14:44:03.592Z,12.68
2023-01-20T14:46:33.567Z,19.15
2023-01-20T14:49:02.492Z,11.93
2023-01-20T14:51:30.289Z,15.02
2023-01-20T14:54:35.866Z,14.27
2023-01-20T14:57:20.575Z,11.85
2023-01-20T14:59:49.383Z,11.30
2023-01-20T15:02:27.172Z,14.20
2023-01-20T15:04:56.126Z,14.30
2023-01-20T15:07:25.689Z,13.40
2023-01-20T15:09:57.674Z,18.73
2023-01-20T15:12:40.175Z,13.35
2023-01-20T15:15:15.243Z,17.65
2023-01-20T15:18:04.317Z,13.65
2023-01-20T15:20:33.460Z,18.45
2023-01-20T15:23:02.068Z,15.45
2023-01-20T15:25:30.163Z,17.95
2023-01-20T15:27:59.174Z,18.92
2023-01-20T15:30:29.703Z,109.90
2023-01-20T15:32:57.736Z,19.42
2023-01-20T15:35:26.817Z,13.63
2023-01-20T15:37:55.126Z,18.08
2023-01-20T15:40:24.330Z,18.08
2023-01-20T15:42:53.273Z,19.80
2023-01-20T15:45:22.192Z,16.70
2023-01-20T15:47:49.830Z,16.85
2023-01-20T15:50:21.589Z,18.60
2023-01-20T15:52:49.738Z,18.52
2023-01-20T15:55:19.790Z,17.60
2023-01-20T15:57:51.850Z,15.13
2023-01-20T16:00:22.537Z,17.00
2023-01-20T16:02:50.326Z,19.95
2023-01-20T16:05:18.080Z,23.38
2023-01-20T16:07:47.392Z,15.15
2023-01-20T16:10:17.349Z,15.93
2023-01-20T16:12:45.509Z,20.08
2023-01-20T16:15:17.837Z,17.95
2023-01-20T16:17:46.726Z,10.20
2023-01-20T16:20:20.243Z,13.57
2023-01-20T16:22:47.792Z,14.95
2023-01-20T16:25:15.589Z,12.48
2023-01-20T16:27:43.174Z,17.33
2023-01-20T16:30:15.834Z,16.63
2023-01-20T16:32:46.050Z,14.27
2023-01-20T16:35:15.708Z,15.88
2023-01-20T16:37:45.394Z,12.48
2023-01-20T16:40:14.796Z,19.17
2023-01-20T16:42:42.520Z,16.55
2023-01-20T16:45:22.874Z,19.85
2023-01-20T16:47:50.584Z,16.85
2023-01-20T16:50:19.650Z,15.35
2023-01-20T16:52:47.208Z,15.20
2023-01-20T16:55:15.005Z,16.70
2023-01-20T16:57:43.240Z,15.57
2023-01-20T17:00:11.876Z,20.73
2023-01-20T17:02:39.901Z,18.67
2023-01-20T17:05:08.557Z,17.17
2023-01-20T17:07:37.489Z,20.65
2023-01-20T17:10:05.727Z,20.40
2023-01-20T17:12:33.358Z,20.65
2023-01-20T17:15:01.060Z,25.27
2023-01-20T17:17:28.586Z,18.88
2023-01-20T17:19:56.081Z,18.55
2023-01-20T17:22:23.535Z,17.50
2023-01-20T17:24:52.438Z,20.92
2023-01-20T17:27:19.884Z,16.10
2023-01-20T17:29:47.378Z,17.23
2023-01-20T17:32:15.948Z,20.55
2023-01-20T17:34:43.430Z,17.23
2023-01-20T17:37:10.909Z,22.42
2023-01-20T17:39:39.595Z,27.23
2023-01-20T17:42:08.467Z,28.65
2023-01-20T17:44:37.747Z,26.85
2023-01-20T17:47:05.669Z,23.45
2023-01-20T17:49:33.345Z,27.20
2023-01-20T17:52:00.879Z,14.85
2023-01-20T17:54:28.429Z,14.50
2023-01-20T17:56:55.906Z,19.05
2023-01-20T17:59:26.140Z,16.33
2023-01-20T18:01:54.291Z,17.75
2023-01-20T18:04:23.017Z,18.35
2023-01-20T18:06:50.547Z,32.92
2023-01-20T18:09:18.026Z,22.13
2023-01-20T18:11:45.588Z,19.20
2023-01-20T18:14:13.593Z,16.33
2023-01-20T18:16:42.620Z,16.65
2023-01-20T18:19:11.831Z,21.42
2023-01-20T18:21:39.745Z,22.40
2023-01-20T18:24:08.543Z,21.60
2023-01-20T18:26:38.268Z,23.48
2023-01-20T18:29:07.558Z,30.58
2023-01-20T18:31:36.309Z,24.27
2023-01-20T18:34:07.415Z,24.13
2023-01-20T18:36:36.850Z,20.27
2023-01-20T18:39:06.087Z,22.40
2023-01-20T18:41:37.897Z,21.63
2023-01-20T18:44:08.696Z,18.38
2023-01-20T18:46:36.240Z,17.67
2023-01-20T18:49:08.536Z,23.10
2023-01-20T18:51:37.076Z,21.83
2023-01-20T18:54:06.312Z,24.33
2023-01-20T18:56:34.889Z,18.42
2023-01-20T18:59:03.555Z,17.83
2023-01-20T19:01:33.753Z,19.00
2023-01-20T19:04:01.985Z,24.85
2023-01-20T19:06:34.168Z,18.48
2023-01-20T19:09:02.309Z,18.10
2023-01-20T19:11:31.561Z,19.85
2023-01-20T19:13:59.888Z,22.95
2023-01-20T19:16:32.424Z,16.88
2023-01-20T19:19:01.726Z,17.67
2023-01-20T19:21:33.042Z,22.55
2023-01-20T19:24:05.567Z,21.67
2023-01-20T19:26:38.869Z,18.58
2023-01-20T19:29:08.271Z,17.90
2023-01-20T19:31:38.374Z,18.42
2023-01-20T19:34:06.772Z,18.25
2023-01-20T19:36:36.521Z,18.05
2023-01-20T19:39:04.598Z,17.30
2023-01-20T19:41:33.301Z,17.98
2023-01-20T19:44:03.085Z,16.58
2023-01-20T19:46:32.956Z,21.63
2023-01-20T19:49:02.100Z,20.70
2023-01-20T19:51:31.091Z,22.00
2023-01-20T19:54:01.788Z,19.02
2023-01-20T19:56:31.196Z,22.27
2023-01-20T19:59:00.568Z,20.30
2023-01-20T20:01:31.656Z,21.98
2023-01-20T20:03:59.916Z,24.42
2023-01-20T20:06:29.846Z,23.95
2023-01-20T20:09:00.498Z,21.52
2023-01-20T20:11:28.037Z,27.10
2023-01-20T20:13:56.672Z,25.77
2023-01-20T20:16:26.287Z,26.23
2023-01-20T20:18:57.956Z,21.00
2023-01-20T20:21:26.318Z,23.73
2023-01-20T20:23:55.562Z,18.55
2023-01-20T20:26:26.386Z,22.38
2023-01-20T20:28:54.104Z,21.67
2023-01-20T20:31:28.655Z,21.05
2023-01-20T20:33:56.384Z,25.58
2023-01-20T20:36:23.842Z,19.67
2023-01-20T20:38:52.576Z,19.63
2023-01-20T20:41:20.316Z,26.13
2023-01-20T20:43:49.150Z,21.23
2023-01-20T20:46:17.255Z,25.35
2023-01-20T20:48:44.762Z,23.45
2023-01-20T20:51:14.395Z,29.05
2023-01-20T20:53:42.785Z,23.90
2023-01-20T20:56:12.406Z,23.25
2023-01-20T20:58:55.215Z,31.65
2023-01-20T21:01:30.122Z,32.40
2023-01-20T21:04:00.116Z,28.08
2023-01-20T21:06:27.656Z,25.23
2023-01-20T21:08:55.165Z,22.83
2023-01-20T21:11:24.002Z,25.40
2023-01-20T21:13:51.844Z,31.50
2023-01-20T21:16:22.648Z,23.55
2023-01-20T21:18:52.845Z,31.55
2023-01-20T21:21:21.148Z,25.13
2023-01-20T21:23:50.591Z,28.73
2023-01-20T21:26:18.276Z,32.25
2023-01-20T21:28:48.963Z,33.63
2023-01-20T21:31:19.014Z,44.42
2023-01-20T21:33:46.754Z,29.15
2023-01-20T21:36:15.955Z,34.92
2023-01-20T21:38:45.349Z,29.83
2023-01-20T21:41:14.345Z,29.17
2023-01-20T21:44:00.994Z,30.48
2023-01-20T21:46:32.963Z,29.35
2023-01-20T21:49:18.337Z,27.65
2023-01-20T21:52:04.831Z,29.60
2023-01-20T21:54:33.732Z,34.72
2023-01-20T21:57:02.535Z,26.77
2023-01-20T21:59:30.212Z,28.85
2023-01-20T22:01:57.735Z,32.00
2023-01-20T22:04:25.279Z,35.42
2023-01-20T22:06:54.691Z,31.17
2023-01-20T22:09:22.208Z,29.40
2023-01-20T22:11:50.118Z,30.73
2023-01-20T22:14:17.625Z,32.00
2023-01-20T22:16:45.291Z,32.67
2023-01-20T22:19:13.373Z,33.05
2023-01-20T22:21:40.925Z,32.45
2023-01-20T22:24:10.634Z,31.75
2023-01-20T22:26:38.400Z,35.17
2023-01-20T22:29:06.128Z,33.45
2023-01-20T22:31:34.232Z,38.15
2023-01-20T22:34:05.049Z,30.88
2023-01-20T22:36:33.147Z,33.10
2023-01-20T22:39:01.118Z,35.35
2023-01-20T22:41:30.242Z,38.78
2023-01-20T22:43:58.337Z,31.08
2023-01-20T22:46:27.751Z,37.50
2023-01-20T22:48:56.591Z,35.78
2023-01-20T22:51:25.949Z,34.30
2023-01-20T22:53:54.269Z,35.40
2023-01-20T22:56:23.275Z,37.22
2023-01-20T22:58:53.036Z,36.83
2023-01-20T23:01:22.363Z,35.17
2023-01-20T23:03:54.316Z,35.97
2023-01-20T23:06:22.134Z,32.40
2023-01-20T23:08:49.593Z,34.33
2023-01-20T23:11:19.092Z,28.92
2023-01-20T23:13:47.752Z,31.60
2023-01-20T23:16:18.520Z,33.50
2023-01-20T23:18:46.988Z,35.38
2023-01-20T23:21:15.492Z,36.55
2023-01-20T23:23:43.043Z,32.42
2023-01-20T23:26:14.113Z,33.20
2023-01-20T23:28:41.855Z,34.05
2023-01-20T23:31:11.605Z,39.17
2023-01-20T23:33:43.311Z,32.45
2023-01-20T23:36:13.422Z,36.60
2023-01-20T23:38:40.970Z,35.30
2023-01-20T23:41:08.495Z,33.70
2023-01-20T23:43:36.020Z,38.40
2023-01-20T23:46:06.231Z,30.65
2023-01-20T23:48:34.497Z,34.95
2023-01-20T23:51:03.840Z,34.58
2023-01-20T23:53:33.673Z,33.15
2023-01-20T23:56:01.861Z,36.38
2023-01-20T23:58:29.973Z,32.88
